createdAt,value
2022-08-10T00:01:48.336Z,1.00
2022-08-10T00:04:21.343Z,0.90
2022-08-10T00:06:50.139Z,1.13
2022-08-10T00:09:17.029Z,0.88
2022-08-10T00:11:43.911Z,1.02
2022-08-10T00:14:10.865Z,1.08
2022-08-10T00:16:37.700Z,0.82
2022-08-10T00:19:04.600Z,0.88
2022-08-10T00:21:31.465Z,1.20
2022-08-10T00:23:58.331Z,1.20
2022-08-10T00:26:25.225Z,1.20
2022-08-10T00:28:53.012Z,0.90
2022-08-10T00:31:20.028Z,1.23
2022-08-10T00:33:46.912Z,1.20
2022-08-10T00:36:13.830Z,1.10
2022-08-10T00:38:40.846Z,1.00
2022-08-10T00:41:07.860Z,1.20
2022-08-10T00:43:34.799Z,0.95
2022-08-10T00:46:01.765Z,1.35
2022-08-10T00:48:30.045Z,1.15
2022-08-10T00:50:59.336Z,1.63
2022-08-10T00:53:29.690Z,2.08
2022-08-10T00:57:07.869Z,2.42
2022-08-10T00:58:44.966Z,2.20
2022-08-10T01:02:09.663Z,2.28
2022-08-10T01:04:36.173Z,1.70
2022-08-10T01:07:22.263Z,1.63
2022-08-10T01:10:48.881Z,1.42
2022-08-10T01:13:40.059Z,1.42
2022-08-10T01:16:34.916Z,1.20
2022-08-10T01:19:23.709Z,0.88
2022-08-10T01:22:01.869Z,1.20
2022-08-10T01:24:53.781Z,1.23
2022-08-10T01:28:16.535Z,1.40
2022-08-10T01:30:47.304Z,1.08
2022-08-10T01:33:57.873Z,1.33
2022-08-10T01:36:32.045Z,1.15
2022-08-10T01:39:03.756Z,1.30
2022-08-10T01:41:47.497Z,1.15
2022-08-10T01:44:21.015Z,1.20
2022-08-10T01:46:56.957Z,1.30
2022-08-10T01:49:26.911Z,1.08
2022-08-10T01:52:00.918Z,1.65
2022-08-10T01:54:30.732Z,1.40
2022-08-10T01:57:01.663Z,1.20
2022-08-10T02:02:15.826Z,1.40
2022-08-10T02:04:49.273Z,1.25
2022-08-10T02:07:21.953Z,1.30
2022-08-10T02:09:54.941Z,1.35
2022-08-10T02:12:30.449Z,1.40
2022-08-10T02:15:03.153Z,1.20
2022-08-10T02:17:59.003Z,1.20
2022-08-10T02:20:34.974Z,1.15
2022-08-10T02:23:11.609Z,1.33
2022-08-10T02:25:43.874Z,1.65
2022-08-10T02:28:27.264Z,1.25
2022-08-10T02:31:23.171Z,1.40
2022-08-10T02:33:57.864Z,1.33
2022-08-10T02:36:32.455Z,1.23
2022-08-10T02:39:05.830Z,1.63
2022-08-10T02:45:01.045Z,1.60
2022-08-10T02:45:18.215Z,1.65
2022-08-10T02:48:13.523Z,1.60
2022-08-10T02:50:46.301Z,1.60
2022-08-10T02:53:54.492Z,1.55
2022-08-10T02:56:28.500Z,2.03
2022-08-10T02:59:08.346Z,1.48
2022-08-10T03:01:43.348Z,1.50
2022-08-10T03:04:55.674Z,1.40
2022-08-10T03:07:16.742Z,1.48
2022-08-10T03:09:46.819Z,2.13
2022-08-10T03:12:37.806Z,1.40
2022-08-10T03:15:05.961Z,1.50
2022-08-10T03:17:34.157Z,1.98
2022-08-10T03:20:34.315Z,1.45
2022-08-10T03:22:52.508Z,1.48
2022-08-10T03:25:24.088Z,1.45
2022-08-10T03:27:53.066Z,1.60
2022-08-10T03:30:29.374Z,1.70
2022-08-10T03:33:03.199Z,1.38
2022-08-10T03:35:30.423Z,1.63
2022-08-10T03:37:59.800Z,1.65
2022-08-10T03:40:45.326Z,1.60
2022-08-10T03:43:20.488Z,1.33
2022-08-10T03:45:56.839Z,1.40
2022-08-10T03:48:32.329Z,1.25
2022-08-10T03:51:16.283Z,1.70
2022-08-10T03:54:05.289Z,1.33
2022-08-10T03:56:33.235Z,1.50
2022-08-10T03:59:02.104Z,1.60
2022-08-10T04:02:44.769Z,1.27
2022-08-10T04:04:23.543Z,1.75
2022-08-10T04:06:57.074Z,1.38
2022-08-10T04:09:53.525Z,1.63
2022-08-10T04:12:21.731Z,1.50
2022-08-10T04:14:51.059Z,1.60
2022-08-10T04:17:56.807Z,1.60
2022-08-10T04:20:34.484Z,1.70
2022-08-10T04:23:09.083Z,1.13
2022-08-10T04:25:39.715Z,1.40
2022-08-10T04:28:08.766Z,1.35
2022-08-10T04:30:37.578Z,1.58
2022-08-10T04:33:07.999Z,1.40
2022-08-10T04:35:36.328Z,1.65
2022-08-10T04:38:05.687Z,1.52
2022-08-10T04:40:32.770Z,1.35
2022-08-10T04:43:07.427Z,1.65
2022-08-10T04:45:49.167Z,1.50
2022-08-10T04:48:40.360Z,1.60
2022-08-10T04:51:17.102Z,1.35
2022-08-10T04:54:05.071Z,1.55
2022-08-10T04:56:34.613Z,1.50
2022-08-10T04:59:01.490Z,1.42
2022-08-10T05:02:21.114Z,1.30
2022-08-10T05:04:35.364Z,1.27
2022-08-10T05:07:09.186Z,1.33
2022-08-10T05:10:02.435Z,1.58
2022-08-10T05:12:25.054Z,1.55
2022-08-10T05:14:52.272Z,1.45
2022-08-10T05:17:22.090Z,1.40
2022-08-10T05:20:03.568Z,1.42
2022-08-10T05:22:36.134Z,1.50
2022-08-10T05:25:04.658Z,1.60
2022-08-10T05:27:31.556Z,1.20
2022-08-10T05:30:02.097Z,1.13
2022-08-10T05:32:31.824Z,1.27
2022-08-10T05:34:58.785Z,1.42
2022-08-10T05:38:09.835Z,1.25
2022-08-10T05:40:14.588Z,1.20
2022-08-10T05:42:42.018Z,1.17
2022-08-10T05:45:27.674Z,1.27
2022-08-10T05:48:55.465Z,1.10
2022-08-10T05:50:42.227Z,1.15
2022-08-10T05:53:59.556Z,1.10
2022-08-10T05:55:56.666Z,1.00
2022-08-10T05:58:23.803Z,1.40
2022-08-10T06:00:56.000Z,1.80
2022-08-10T06:03:29.702Z,1.10
2022-08-10T06:05:59.191Z,1.35
2022-08-10T06:08:33.093Z,1.30
2022-08-10T06:12:26.290Z,1.40
2022-08-10T06:14:16.028Z,1.10
2022-08-10T06:16:45.294Z,1.00
2022-08-10T06:19:14.753Z,1.02
2022-08-10T06:21:54.963Z,0.90
2022-08-10T06:24:36.277Z,0.90
2022-08-10T06:27:03.593Z,0.82
2022-08-10T06:29:34.745Z,1.20
2022-08-10T06:32:05.618Z,1.02
2022-08-10T06:37:05.819Z,0.85
2022-08-10T06:39:34.907Z,1.08
2022-08-10T06:42:17.963Z,1.00
2022-08-10T06:44:58.070Z,0.90
2022-08-10T06:47:43.664Z,1.20
2022-08-10T06:50:35.092Z,1.40
2022-08-10T06:53:22.682Z,0.98
2022-08-10T06:55:57.275Z,0.93
2022-08-10T06:58:32.288Z,0.98
2022-08-10T07:01:03.108Z,0.90
2022-08-10T07:06:06.999Z,0.93
2022-08-10T07:08:36.769Z,1.02
2022-08-10T07:11:08.782Z,0.90
2022-08-10T07:14:17.315Z,1.38
2022-08-10T07:16:31.592Z,0.70
2022-08-10T07:21:31.312Z,1.08
2022-08-10T07:24:01.606Z,0.90
2022-08-10T07:26:31.181Z,0.43
2022-08-10T07:29:00.208Z,0.60
2022-08-10T07:31:54.534Z,1.02
2022-08-10T07:34:29.441Z,1.52
2022-08-10T07:37:03.472Z,0.68
2022-08-10T07:39:57.943Z,0.98
2022-08-10T07:42:25.874Z,0.80
2022-08-10T07:44:53.060Z,0.60
2022-08-10T07:47:52.939Z,0.77
2022-08-10T07:50:25.028Z,0.90
2022-08-10T07:52:57.887Z,0.95
2022-08-10T07:56:04.512Z,0.75
2022-08-10T07:58:17.079Z,0.90
2022-08-10T08:00:47.417Z,1.00
2022-08-10T08:03:16.240Z,0.88
2022-08-10T08:05:58.239Z,0.90
2022-08-10T08:08:33.383Z,0.63
2022-08-10T08:11:00.868Z,0.82
2022-08-10T08:13:30.802Z,0.52
2022-08-10T08:16:21.386Z,0.52
2022-08-10T08:19:16.403Z,1.17
2022-08-10T08:24:05.848Z,0.70
2022-08-10T08:24:32.561Z,1.00
2022-08-10T08:27:05.613Z,0.70
2022-08-10T08:29:39.083Z,1.10
2022-08-10T08:32:07.095Z,0.80
2022-08-10T08:34:39.431Z,0.68
2022-08-10T08:37:10.194Z,1.10
2022-08-10T08:39:38.069Z,0.70
2022-08-10T08:42:40.840Z,1.15
2022-08-10T08:45:48.192Z,0.68
2022-08-10T08:50:05.027Z,0.70
2022-08-10T08:52:27.003Z,0.70
2022-08-10T08:56:04.493Z,0.40
2022-08-10T08:58:49.367Z,0.55
2022-08-10T09:01:40.353Z,0.50
2022-08-10T09:04:34.289Z,0.80
2022-08-10T09:08:00.510Z,0.57
2022-08-10T09:10:19.709Z,0.52
2022-08-10T09:13:04.329Z,0.50
2022-08-10T09:16:17.281Z,0.50
2022-08-10T09:19:19.468Z,0.98
2022-08-10T09:22:18.073Z,0.60
2022-08-10T09:24:55.853Z,0.73
2022-08-10T09:27:44.035Z,0.43
2022-08-10T09:30:32.322Z,0.60
2022-08-10T09:36:24.402Z,0.60
2022-08-10T09:36:36.983Z,0.50
2022-08-10T09:40:06.667Z,0.40
2022-08-10T09:42:43.260Z,0.40
2022-08-10T09:45:43.621Z,0.45
2022-08-10T09:48:46.098Z,0.40
2022-08-10T09:51:47.696Z,0.40
2022-08-10T09:54:53.528Z,0.47
2022-08-10T09:57:46.140Z,0.40
2022-08-10T10:00:20.146Z,0.60
2022-08-10T10:03:24.085Z,0.40
2022-08-10T10:06:05.269Z,0.45
2022-08-10T10:09:09.849Z,0.60
2022-08-10T10:12:21.593Z,0.40
2022-08-10T10:15:24.000Z,0.40
2022-08-10T10:18:29.253Z,0.50
2022-08-10T10:21:55.406Z,0.50
2022-08-10T10:24:52.884Z,0.40
2022-08-10T10:27:47.883Z,0.22
2022-08-10T10:30:18.913Z,0.50
2022-08-10T10:33:14.643Z,0.77
2022-08-10T10:35:52.123Z,0.50
2022-08-10T10:38:26.829Z,0.60
2022-08-10T10:41:11.565Z,0.57
2022-08-10T10:44:21.696Z,0.45
2022-08-10T10:47:42.363Z,0.50
2022-08-10T10:50:26.058Z,0.60
2022-08-10T10:53:22.319Z,0.40
2022-08-10T10:56:57.178Z,0.40
2022-08-10T11:00:03.993Z,0.45
2022-08-10T11:03:31.249Z,0.40
2022-08-10T11:06:39.743Z,0.43
2022-08-10T11:10:04.619Z,0.50
2022-08-10T11:12:44.190Z,0.50
2022-08-10T11:16:06.799Z,0.55
2022-08-10T11:19:05.012Z,0.30
2022-08-10T11:22:00.607Z,0.55
2022-08-10T11:24:50.676Z,0.50
2022-08-10T11:27:58.820Z,0.28
2022-08-10T11:30:56.970Z,0.35
2022-08-10T11:34:47.494Z,0.50
2022-08-10T11:37:05.132Z,0.40
2022-08-10T11:39:59.208Z,0.50
2022-08-10T11:42:46.489Z,0.45
2022-08-10T11:45:30.026Z,0.45
2022-08-10T11:48:12.693Z,0.60
2022-08-10T11:51:06.081Z,0.63
2022-08-10T11:53:42.759Z,0.60
2022-08-10T11:56:16.203Z,0.40
2022-08-10T11:59:16.730Z,1.00
2022-08-10T12:01:47.678Z,0.70
2022-08-10T12:04:16.537Z,0.52
2022-08-10T12:07:01.848Z,0.60
2022-08-10T12:10:06.756Z,0.45
2022-08-10T12:12:19.468Z,0.52
2022-08-10T12:15:08.812Z,0.40
2022-08-10T12:17:48.120Z,0.40
2022-08-10T12:20:35.136Z,0.50
2022-08-10T12:23:28.854Z,0.68
2022-08-10T12:26:25.292Z,0.52
2022-08-10T12:29:08.803Z,0.30
2022-08-10T12:31:57.691Z,0.40
2022-08-10T12:34:50.880Z,0.40
2022-08-10T12:37:29.708Z,0.50
2022-08-10T12:40:44.274Z,0.65
2022-08-10T12:44:07.999Z,0.60
2022-08-10T12:46:26.843Z,0.40
2022-08-10T12:49:20.024Z,0.65
2022-08-10T12:52:16.365Z,0.60
2022-08-10T12:54:45.729Z,0.40
2022-08-10T12:57:16.160Z,0.55
2022-08-10T13:02:26.394Z,0.70
2022-08-10T13:04:58.093Z,0.40
2022-08-10T13:08:27.718Z,0.50
2022-08-10T13:11:18.417Z,0.40
2022-08-10T13:14:12.392Z,0.40
2022-08-10T13:16:41.398Z,0.40
2022-08-10T13:19:10.945Z,0.38
2022-08-10T13:21:40.935Z,0.60
2022-08-10T13:24:17.580Z,0.45
2022-08-10T13:27:25.169Z,0.60
2022-08-10T13:29:51.332Z,0.50
2022-08-10T13:32:29.337Z,0.50
2022-08-10T13:35:02.495Z,0.47
2022-08-10T13:37:33.955Z,0.40
2022-08-10T13:40:02.494Z,0.40
2022-08-10T13:42:38.091Z,0.43
2022-08-10T13:45:22.397Z,0.38
2022-08-10T13:47:55.946Z,0.47
2022-08-10T13:50:34.509Z,0.70
2022-08-10T13:53:09.931Z,0.40
2022-08-10T13:56:01.707Z,0.35
2022-08-10T13:58:38.141Z,0.40
2022-08-10T14:01:16.743Z,0.63
2022-08-10T14:03:46.725Z,0.40
2022-08-10T14:06:19.113Z,0.40
2022-08-10T14:08:55.994Z,0.40
2022-08-10T14:11:25.184Z,0.47
2022-08-10T14:14:05.391Z,0.40
2022-08-10T14:16:35.009Z,0.30
2022-08-10T14:19:12.638Z,0.50
2022-08-10T14:21:43.286Z,0.60
2022-08-10T14:24:26.307Z,0.40
2022-08-10T14:27:08.664Z,0.52
2022-08-10T14:29:55.095Z,0.38
2022-08-10T14:32:27.287Z,0.30
2022-08-10T14:36:16.577Z,0.60
2022-08-10T14:37:50.978Z,0.32
2022-08-10T14:40:26.063Z,0.30
2022-08-10T14:43:04.421Z,0.55
2022-08-10T14:45:35.979Z,0.30
2022-08-10T14:48:21.275Z,0.52
2022-08-10T14:50:55.416Z,0.40
2022-08-10T14:53:31.578Z,0.40
2022-08-10T14:56:13.741Z,0.40
2022-08-10T14:58:59.072Z,0.30
2022-08-10T15:02:00.450Z,0.40
2022-08-10T15:04:28.457Z,0.30
2022-08-10T15:07:12.189Z,0.40
2022-08-10T15:10:01.136Z,0.50
2022-08-10T15:12:38.881Z,0.35
2022-08-10T15:15:11.381Z,0.40
2022-08-10T15:17:52.826Z,0.30
2022-08-10T15:20:24.664Z,0.35
2022-08-10T15:23:03.937Z,0.30
2022-08-10T15:25:36.548Z,0.60
2022-08-10T15:28:10.451Z,0.30
2022-08-10T15:30:42.860Z,0.50
2022-08-10T15:34:02.419Z,0.40
2022-08-10T15:37:36.058Z,0.40
2022-08-10T15:40:25.173Z,0.50
2022-08-10T15:42:54.568Z,0.40
2022-08-10T15:45:25.757Z,0.30
2022-08-10T15:48:03.766Z,0.30
2022-08-10T15:50:40.894Z,0.30
2022-08-10T15:53:15.909Z,0.30
2022-08-10T15:55:56.326Z,0.32
2022-08-10T15:58:39.900Z,0.20
2022-08-10T16:02:12.442Z,0.30
2022-08-10T16:04:32.121Z,0.32
2022-08-10T16:07:07.513Z,0.30
2022-08-10T16:10:22.602Z,0.30
2022-08-10T16:12:38.987Z,0.35
2022-08-10T16:15:17.589Z,0.43
2022-08-10T16:17:57.520Z,0.40
2022-08-10T16:20:32.273Z,0.30
2022-08-10T16:23:09.086Z,0.35
2022-08-10T16:25:48.150Z,0.28
2022-08-10T16:28:23.749Z,0.40
2022-08-10T16:30:57.020Z,0.60
2022-08-10T16:33:53.956Z,0.55
2022-08-10T16:36:18.617Z,0.40
2022-08-10T16:38:50.512Z,0.40
2022-08-10T16:42:02.623Z,0.50
2022-08-10T16:44:13.566Z,0.40
2022-08-10T16:46:45.148Z,0.40
2022-08-10T16:49:16.218Z,0.30
2022-08-10T16:51:50.635Z,0.52
2022-08-10T16:54:27.096Z,0.50
2022-08-10T16:57:02.519Z,0.30
2022-08-10T16:59:49.447Z,0.43
2022-08-10T17:02:19.786Z,0.30
2022-08-10T17:04:50.964Z,0.38
2022-08-10T17:07:20.962Z,0.40
2022-08-10T17:09:55.832Z,0.50
2022-08-10T17:12:31.133Z,0.38
2022-08-10T17:15:09.845Z,0.43
2022-08-10T17:18:00.851Z,0.38
2022-08-10T17:20:33.861Z,0.30
2022-08-10T17:23:12.609Z,0.40
2022-08-10T17:25:48.506Z,0.30
2022-08-10T17:28:33.138Z,0.50
2022-08-10T17:31:23.813Z,0.50
2022-08-10T17:34:00.684Z,0.50
2022-08-10T17:36:35.046Z,0.70
2022-08-10T17:39:04.607Z,0.52
2022-08-10T17:41:33.975Z,0.40
2022-08-10T17:44:05.844Z,0.40
2022-08-10T17:46:40.890Z,0.40
2022-08-10T17:49:18.000Z,0.40
2022-08-10T17:51:53.421Z,0.50
2022-08-10T17:54:38.764Z,0.40
2022-08-10T17:57:18.390Z,0.32
2022-08-10T17:59:48.267Z,0.50
2022-08-10T18:02:23.991Z,0.35
2022-08-10T18:05:00.292Z,0.47
2022-08-10T18:07:35.950Z,0.65
2022-08-10T18:10:06.188Z,0.30
2022-08-10T18:12:44.599Z,0.57
2022-08-10T18:15:16.161Z,0.40
2022-08-10T18:17:58.326Z,0.40
2022-08-10T18:20:35.401Z,0.40
2022-08-10T18:23:03.914Z,0.35
2022-08-10T18:25:36.378Z,0.45
2022-08-10T18:28:09.438Z,0.60
2022-08-10T18:30:48.134Z,0.60
2022-08-10T18:33:18.577Z,0.55
2022-08-10T18:35:48.007Z,0.52
2022-08-10T18:38:17.453Z,0.63
2022-08-10T18:40:54.153Z,0.90
2022-08-10T18:44:11.127Z,0.55
2022-08-10T18:46:29.640Z,0.57
2022-08-10T18:49:23.922Z,0.45
2022-08-10T18:51:53.833Z,0.65
2022-08-10T18:54:39.051Z,0.70
2022-08-10T19:00:17.732Z,0.45
2022-08-10T19:03:21.953Z,0.50
2022-08-10T19:06:09.934Z,0.55
2022-08-10T19:09:47.765Z,0.50
2022-08-10T19:12:48.256Z,0.68
2022-08-10T19:16:35.540Z,0.50
2022-08-10T19:19:46.131Z,0.60
2022-08-10T19:22:32.293Z,0.65
2022-08-10T19:25:16.919Z,0.68
2022-08-10T19:28:16.747Z,0.60
2022-08-10T19:31:43.950Z,0.93
2022-08-10T19:34:46.081Z,0.40
2022-08-10T19:37:40.163Z,0.80
2022-08-10T19:40:15.662Z,0.68
2022-08-10T19:43:59.955Z,0.70
2022-08-10T19:46:31.072Z,0.70
2022-08-10T19:49:31.647Z,0.57
2022-08-10T19:52:22.552Z,0.60
2022-08-10T19:54:52.425Z,0.55
2022-08-10T19:57:46.266Z,0.77
2022-08-10T20:00:19.153Z,0.80
2022-08-10T20:03:20.309Z,0.80
2022-08-10T20:06:19.472Z,1.10
2022-08-10T20:09:02.866Z,0.67
2022-08-10T20:11:47.422Z,0.90
2022-08-10T20:14:25.994Z,0.70
2022-08-10T20:17:02.555Z,0.75
2022-08-10T20:19:53.378Z,0.70
2022-08-10T20:22:32.581Z,0.70
2022-08-10T20:25:23.628Z,0.63
2022-08-10T20:28:08.600Z,0.82
2022-08-10T20:30:46.585Z,1.20
2022-08-10T20:33:24.853Z,0.88
2022-08-10T20:36:17.430Z,1.40
2022-08-10T20:39:13.503Z,1.00
2022-08-10T20:42:24.874Z,1.65
2022-08-10T20:45:06.341Z,0.90
2022-08-10T20:47:54.047Z,0.70
2022-08-10T20:50:53.543Z,1.20
2022-08-10T20:53:31.253Z,0.80
2022-08-10T20:56:33.454Z,0.90
2022-08-10T21:00:04.102Z,0.90
2022-08-10T21:03:06.988Z,0.88
2022-08-10T21:05:52.605Z,0.90
2022-08-10T21:09:12.512Z,0.90
2022-08-10T21:11:55.622Z,0.70
2022-08-10T21:14:37.272Z,0.80
2022-08-10T21:17:31.730Z,1.20
2022-08-10T21:20:30.742Z,0.93
2022-08-10T21:23:05.574Z,1.13
2022-08-10T21:26:09.225Z,1.08
2022-08-10T21:29:40.199Z,0.93
2022-08-10T21:32:30.440Z,1.10
2022-08-10T21:35:37.866Z,0.90
2022-08-10T21:38:48.468Z,1.10
2022-08-10T21:42:14.935Z,0.90
2022-08-10T21:45:58.721Z,1.15
2022-08-10T21:48:43.623Z,0.75
2022-08-10T21:52:01.943Z,0.90
2022-08-10T21:55:08.739Z,0.83
2022-08-10T21:58:27.487Z,0.85
2022-08-10T22:01:31.879Z,1.10
2022-08-10T22:04:26.327Z,0.95
2022-08-10T22:07:17.526Z,0.80
2022-08-10T22:10:10.943Z,1.30
2022-08-10T22:13:01.976Z,1.00
2022-08-10T22:19:03.552Z,1.00
2022-08-10T22:22:28.190Z,0.70
2022-08-10T22:25:47.772Z,0.90
2022-08-10T22:28:38.480Z,0.80
2022-08-10T22:31:32.368Z,1.05
2022-08-10T22:35:05.881Z,1.10
2022-08-10T22:38:36.135Z,0.93
2022-08-10T22:41:44.239Z,0.98
2022-08-10T22:44:35.122Z,1.27
2022-08-10T22:47:21.816Z,1.23
2022-08-10T22:49:53.286Z,1.30
2022-08-10T22:52:31.684Z,1.23
2022-08-10T22:55:45.178Z,1.85
2022-08-10T22:58:35.166Z,1.42
2022-08-10T23:01:36.595Z,1.00
2022-08-10T23:04:25.844Z,1.02
2022-08-10T23:07:23.336Z,1.42
2022-08-10T23:10:13.007Z,1.17
2022-08-10T23:12:55.016Z,1.25
2022-08-10T23:15:51.548Z,0.85
2022-08-10T23:18:53.896Z,1.10
2022-08-10T23:21:25.295Z,1.00
2022-08-10T23:23:56.624Z,1.00
2022-08-10T23:26:27.507Z,1.10
2022-08-10T23:28:59.182Z,1.00
2022-08-10T23:31:50.392Z,1.25
2022-08-10T23:34:32.749Z,1.05
2022-08-10T23:37:02.869Z,1.30
2022-08-10T23:39:38.994Z,1.30
2022-08-10T23:42:16.019Z,1.45
2022-08-10T23:44:50.632Z,1.17
2022-08-10T23:47:24.442Z,1.23
2022-08-10T23:50:00.376Z,1.20
2022-08-10T23:52:34.380Z,1.38
2022-08-10T23:55:08.112Z,1.13
2022-08-10T23:57:41.893Z,1.20
